Terminal Aerodrome Forecast
Issued by NWS Binghamton, NY

Home | Current Version | Previous Version | Text Only | Print | Product List | Glossary On
Versions: 1 2 3 4 5 6 7 8 9 10 11 12 13 14 15 16 17 18
000
FTUS41 KBGM 020838 AAA
TAFAVP
TAF AMD
KAVP 020838Z 0209/0306 00000KT P6SM SKC
     FM021000 VRB03KT P6SM BKN080
     FM021400 31005KT P6SM SCT045
     FM021900 30006KT P6SM BKN060
     FM022300 VRB03KT P6SM SCT060 BKN250=

USA.gov is the U.S. government's official web portal to all federal, state and local government web resources and services.